Time,TemperatureF,DewpointF,PressureIn,WindDirection,WindDirectionDegrees,WindSpeedMPH,WindSpeedGustMPH,Humidity,HourlyPrecipIn,Conditions,Clouds,dailyrainin,SoftwareType,DateUTC
2013-03-18 00:02:00,36.0,34.0,29.87,ENE,77,8.0,14.0,94,0.12,,,1.11,,2013-03-18 05:02:00,
2013-03-18 00:12:00,36.0,34.0,29.87,ENE,77,8.0,14.0,94,0.12,,,1.11,,2013-03-18 05:12:00,
2013-03-18 00:22:00,36.0,34.0,29.86,ENE,71,8.0,12.0,94,0.12,,,1.13,,2013-03-18 05:22:00,
2013-03-18 00:32:00,36.0,34.0,29.88,East,84,6.0,11.0,94,0.12,,,1.17,,2013-03-18 05:32:00,
2013-03-18 00:43:00,36.0,34.0,29.88,East,84,6.0,11.0,94,0.12,,,1.17,,2013-03-18 05:43:00,
2013-03-18 00:52:00,36.0,34.0,29.84,ESE,114,9.0,13.0,94,0.13,,,1.21,,2013-03-18 05:52:00,
2013-03-18 01:02:00,36.0,34.0,29.81,SE,124,16.0,21.0,94,0.13,,,1.24,,2013-03-18 06:02:00,
2013-03-18 01:12:00,36.0,34.0,29.81,SE,124,16.0,21.0,94,0.13,,,1.24,,2013-03-18 06:12:00,
2013-03-18 01:22:00,36.0,34.0,29.80,ESE,107,13.0,21.0,94,0.14,,,1.27,,2013-03-18 06:22:00,
2013-03-18 01:32:00,37.0,36.0,29.78,ESE,103,16.0,24.0,95,0.14,,,1.30,,2013-03-18 06:32:00,
2013-03-18 01:42:00,37.0,36.0,29.78,ESE,103,16.0,24.0,95,0.14,,,1.30,,2013-03-18 06:42:00,
2013-03-18 01:52:00,37.0,36.0,29.78,ESE,118,13.0,22.0,95,0.14,,,1.34,,2013-03-18 06:52:00,
2013-03-18 02:02:00,37.0,36.0,29.77,SE,126,15.0,20.0,95,0.15,,,1.38,,2013-03-18 07:02:00,
2013-03-18 02:12:00,37.0,36.0,29.77,SE,126,15.0,20.0,95,0.15,,,1.38,,2013-03-18 07:12:00,
2013-03-18 02:22:00,37.0,36.0,29.75,ESE,117,12.0,19.0,95,0.15,,,1.39,,2013-03-18 07:22:00,
2013-03-18 02:32:00,38.0,37.0,29.74,ESE,118,8.0,11.0,95,0.16,,,1.43,,2013-03-18 07:32:00,
2013-03-18 02:42:00,38.0,37.0,29.74,ESE,118,8.0,11.0,95,0.16,,,1.43,,2013-03-18 07:42:00,
2013-03-18 02:53:00,38.0,37.0,29.73,ESE,118,10.0,15.0,95,0.15,,,1.46,,2013-03-18 07:53:00,
2013-03-18 03:02:00,38.0,37.0,29.73,ESE,122,7.0,11.0,95,0.15,,,1.50,,2013-03-18 08:02:00,
2013-03-18 03:12:00,38.0,37.0,29.73,ESE,122,7.0,11.0,95,0.15,,,1.50,,2013-03-18 08:12:00,
2013-03-18 03:22:00,39.0,38.0,29.72,ENE,66,5.0,11.0,95,0.14,,,1.47,,2013-03-18 08:22:00,
2013-03-18 03:32:00,39.0,38.0,29.73,ENE,64,2.0,5.0,95,0.13,,,1.50,,2013-03-18 08:32:00,
2013-03-18 03:43:00,39.0,38.0,29.73,ENE,64,2.0,5.0,95,0.13,,,1.50,,2013-03-18 08:43:00,
2013-03-18 03:52:00,39.0,38.0,29.72,ENE,67,0.0,2.0,95,0.13,,,1.53,,2013-03-18 08:52:00,
2013-03-18 04:12:00,39.0,38.0,29.71,ENE,67,0.0,2.0,95,0.13,,,1.57,,2013-03-18 09:12:00,
2013-03-18 04:22:00,38.0,37.0,29.70,ENE,65,3.0,5.0,95,0.13,,,1.52,,2013-03-18 09:22:00,
2013-03-18 04:33:00,39.0,38.0,29.68,ENE,76,4.0,5.0,95,0.12,,,1.55,,2013-03-18 09:33:00,
2013-03-18 04:43:00,39.0,38.0,29.68,ENE,76,4.0,5.0,95,0.12,,,1.55,,2013-03-18 09:43:00,
2013-03-18 04:53:00,39.0,38.0,29.67,ENE,69,4.0,6.0,95,0.11,,,1.57,,2013-03-18 09:53:00,
2013-03-18 05:03:00,39.0,38.0,29.68,East,79,2.0,3.0,96,0.11,,,1.60,,2013-03-18 10:03:00,
2013-03-18 05:12:00,39.0,38.0,29.68,East,79,2.0,3.0,96,0.11,,,1.60,,2013-03-18 10:12:00,
2013-03-18 05:23:00,39.0,38.0,29.68,ESE,106,0.0,5.0,95,0.10,,,1.54,,2013-03-18 10:23:00,
2013-03-18 05:33:00,39.0,38.0,29.68,ESE,106,0.0,2.0,96,0.10,,,1.57,,2013-03-18 10:33:00,
2013-03-18 05:42:00,39.0,38.0,29.68,ESE,106,0.0,2.0,96,0.10,,,1.57,,2013-03-18 10:42:00,
2013-03-18 05:53:00,39.0,38.0,29.68,ESE,106,0.0,1.0,96,0.10,,,1.59,,2013-03-18 10:53:00,
2013-03-18 06:03:00,39.0,38.0,29.69,ESE,106,0.0,2.0,96,0.09,,,1.61,,2013-03-18 11:03:00,
2013-03-18 06:12:00,39.0,38.0,29.69,ESE,106,0.0,2.0,96,0.09,,,1.61,,2013-03-18 11:12:00,
2013-03-18 06:22:00,39.0,38.0,29.69,ESE,105,0.0,2.0,96,0.09,,,1.60,,2013-03-18 11:22:00,
2013-03-18 06:32:00,39.0,38.0,29.68,NNW,347,0.0,4.0,96,0.08,,,1.62,,2013-03-18 11:32:00,
2013-03-18 06:42:00,39.0,38.0,29.68,NNW,347,0.0,4.0,96,0.08,,,1.62,,2013-03-18 11:42:00,
2013-03-18 06:52:00,39.0,38.0,29.70,NNW,347,0.0,0.0,96,0.08,,,1.64,,2013-03-18 11:52:00,
2013-03-18 07:02:00,39.0,38.0,29.70,NNW,347,1.0,4.0,96,0.08,,,1.66,,2013-03-18 12:02:00,
2013-03-18 07:12:00,39.0,38.0,29.70,NNW,347,1.0,4.0,96,0.08,,,1.66,,2013-03-18 12:12:00,
2013-03-18 07:22:00,39.0,38.0,29.70,NNW,347,0.0,2.0,96,0.07,,,1.66,,2013-03-18 12:22:00,
2013-03-18 07:32:00,38.0,37.0,29.70,NNW,347,0.0,1.0,96,0.07,,,1.68,,2013-03-18 12:32:00,
2013-03-18 07:42:00,38.0,37.0,29.70,NNW,347,0.0,1.0,96,0.07,,,1.68,,2013-03-18 12:42:00,
2013-03-18 07:52:00,38.0,37.0,29.71,NNW,347,0.0,3.0,96,0.06,,,1.69,,2013-03-18 12:52:00,
2013-03-18 08:02:00,38.0,37.0,29.70,NNW,347,0.0,2.0,96,0.05,,,1.70,,2013-03-18 13:02:00,
2013-03-18 08:12:00,38.0,37.0,29.70,NNW,347,0.0,2.0,96,0.05,,,1.70,,2013-03-18 13:12:00,
2013-03-18 08:22:00,38.0,37.0,29.70,NNW,347,0.0,1.0,96,0.05,,,1.71,,2013-03-18 13:22:00,
2013-03-18 08:32:00,39.0,38.0,29.69,NW,324,0.0,1.0,96,0.04,,,1.72,,2013-03-18 13:32:00,
2013-03-18 08:42:00,39.0,38.0,29.69,NW,324,0.0,1.0,96,0.04,,,1.72,,2013-03-18 13:42:00,
2013-03-18 08:52:00,39.0,38.0,29.69,NW,323,0.0,2.0,96,0.03,,,1.72,,2013-03-18 13:52:00,
2013-03-18 09:02:00,39.0,38.0,29.70,NW,323,1.0,3.0,96,0.02,,,1.72,,2013-03-18 14:02:00,
2013-03-18 09:12:00,39.0,38.0,29.70,NW,323,1.0,3.0,96,0.02,,,1.72,,2013-03-18 14:12:00,
2013-03-18 09:22:00,39.0,38.0,29.71,WSW,255,2.0,5.0,96,0.01,,,1.71,,2013-03-18 14:22:00,
2013-03-18 09:32:00,39.0,38.0,29.71,WSW,254,2.0,5.0,96,0.00,,,1.71,,2013-03-18 14:32:00,
2013-03-18 09:42:00,39.0,38.0,29.71,WSW,254,2.0,5.0,96,0.00,,,1.71,,2013-03-18 14:42:00,
2013-03-18 09:52:00,39.0,38.0,29.72,WSW,244,2.0,6.0,96,0.00,,,1.71,,2013-03-18 14:52:00,
2013-03-18 10:02:00,40.0,39.0,29.72,SW,215,3.0,6.0,96,0.00,,,1.71,,2013-03-18 15:02:00,
2013-03-18 10:12:00,40.0,39.0,29.72,SW,215,3.0,6.0,96,0.00,,,1.71,,2013-03-18 15:12:00,
2013-03-18 10:22:00,40.0,39.0,29.73,SW,232,6.0,10.0,96,0.00,,,1.69,,2013-03-18 15:22:00,
2013-03-18 10:33:00,41.0,40.0,29.72,West,270,8.0,10.0,96,0.00,,,1.69,,2013-03-18 15:33:00,
2013-03-18 10:43:00,41.0,40.0,29.72,West,270,8.0,10.0,96,0.00,,,1.69,,2013-03-18 15:43:00,
2013-03-18 10:52:00,42.0,41.0,29.73,WSW,240,4.0,11.0,96,0.00,,,1.69,,2013-03-18 15:52:00,
2013-03-18 11:03:00,42.0,41.0,29.73,WSW,245,4.0,14.0,95,0.01,,,1.70,,2013-03-18 16:03:00,
2013-03-18 11:12:00,42.0,41.0,29.73,WSW,245,4.0,14.0,95,0.01,,,1.70,,2013-03-18 16:12:00,
2013-03-18 11:22:00,43.0,41.0,29.72,West,261,5.0,11.0,92,0.01,,,1.67,,2013-03-18 16:22:00,
2013-03-18 11:32:00,43.0,40.0,29.74,WSW,256,4.0,11.0,90,0.01,,,1.67,,2013-03-18 16:32:00,
2013-03-18 11:42:00,43.0,40.0,29.74,WSW,256,4.0,11.0,90,0.01,,,1.67,,2013-03-18 16:42:00,
2013-03-18 11:53:00,44.0,41.0,29.73,West,267,2.0,9.0,90,0.01,,,1.67,,2013-03-18 16:53:00,
2013-03-18 12:02:00,44.0,41.0,29.73,WSW,243,3.0,12.0,88,0.00,,,1.67,,2013-03-18 17:02:00,
2013-03-18 12:12:00,44.0,41.0,29.73,WSW,243,3.0,12.0,88,0.00,,,1.67,,2013-03-18 17:12:00,
2013-03-18 12:22:00,44.0,40.0,29.75,NW,309,8.0,14.0,86,0.00,,,1.64,,2013-03-18 17:22:00,
2013-03-18 12:32:00,44.0,40.0,29.75,NW,312,6.0,13.0,86,0.00,,,1.64,,2013-03-18 17:32:00,
2013-03-18 12:42:00,44.0,40.0,29.75,NW,312,6.0,13.0,86,0.00,,,1.64,,2013-03-18 17:42:00,
2013-03-18 12:52:00,44.0,39.0,29.76,WNW,288,8.0,13.0,84,0.00,,,1.64,,2013-03-18 17:52:00,
2013-03-18 13:02:00,44.0,40.0,29.76,WNW,300,7.0,15.0,85,0.00,,,1.64,,2013-03-18 18:02:00,
2013-03-18 13:12:00,44.0,40.0,29.76,WNW,300,7.0,15.0,85,0.00,,,1.64,,2013-03-18 18:12:00,
2013-03-18 13:22:00,44.0,40.0,29.76,WNW,293,8.0,14.0,85,0.00,,,1.60,,2013-03-18 18:22:00,
2013-03-18 13:32:00,44.0,40.0,29.76,WNW,293,8.0,14.0,85,0.00,,,1.60,,2013-03-18 18:32:00,
2013-03-18 13:42:00,44.0,40.0,29.76,WNW,293,8.0,14.0,85,0.00,,,1.60,,2013-03-18 18:42:00,
2013-03-18 13:52:00,43.0,39.0,29.76,NW,310,7.0,15.0,85,0.00,,,1.60,,2013-03-18 18:52:00,
2013-03-18 14:02:00,43.0,39.0,29.76,NW,306,8.0,19.0,85,0.00,,,1.60,,2013-03-18 19:02:00,
2013-03-18 14:12:00,43.0,39.0,29.76,NW,306,8.0,19.0,85,0.00,,,1.60,,2013-03-18 19:12:00,
2013-03-18 14:22:00,43.0,39.0,29.76,WNW,297,3.0,11.0,85,0.00,,,1.57,,2013-03-18 19:22:00,
2013-03-18 14:32:00,43.0,39.0,29.76,WNW,299,6.0,14.0,85,0.00,,,1.57,,2013-03-18 19:32:00,
2013-03-18 14:42:00,43.0,39.0,29.76,WNW,299,6.0,14.0,85,0.00,,,1.57,,2013-03-18 19:42:00,
2013-03-18 14:52:00,43.0,39.0,29.76,WNW,295,8.0,15.0,85,0.00,,,1.57,,2013-03-18 19:52:00,
2013-03-18 15:02:00,42.0,38.0,29.77,WNW,295,8.0,15.0,84,0.00,,,1.57,,2013-03-18 20:02:00,
2013-03-18 15:12:00,42.0,38.0,29.77,WNW,295,8.0,15.0,84,0.00,,,1.57,,2013-03-18 20:12:00,
2013-03-18 15:22:00,42.0,38.0,29.78,West,281,11.0,20.0,84,0.00,,,1.56,,2013-03-18 20:22:00,
2013-03-18 15:32:00,42.0,38.0,29.79,WNW,292,8.0,19.0,85,0.00,,,1.56,,2013-03-18 20:32:00,
2013-03-18 15:42:00,42.0,38.0,29.79,WNW,292,8.0,19.0,85,0.00,,,1.56,,2013-03-18 20:42:00,
2013-03-18 15:52:00,42.0,38.0,29.79,NW,304,7.0,15.0,85,0.00,,,1.56,,2013-03-18 20:52:00,
2013-03-18 16:02:00,42.0,38.0,29.79,NW,309,5.0,13.0,85,0.00,,,1.56,,2013-03-18 21:02:00,
2013-03-18 16:12:00,42.0,38.0,29.79,NW,309,5.0,13.0,85,0.00,,,1.56,,2013-03-18 21:12:00,
2013-03-18 16:22:00,42.0,38.0,29.80,WNW,298,7.0,13.0,84,0.00,,,1.56,,2013-03-18 21:22:00,
2013-03-18 16:32:00,42.0,38.0,29.81,WNW,284,5.0,13.0,84,0.00,,,1.56,,2013-03-18 21:32:00,
2013-03-18 16:42:00,42.0,38.0,29.81,WNW,284,5.0,13.0,84,0.00,,,1.56,,2013-03-18 21:42:00,
2013-03-18 16:53:00,42.0,38.0,29.82,WNW,295,4.0,12.0,84,0.00,,,1.56,,2013-03-18 21:53:00,
2013-03-18 17:03:00,42.0,38.0,29.82,West,262,7.0,13.0,84,0.00,,,1.56,,2013-03-18 22:03:00,
2013-03-18 17:13:00,42.0,38.0,29.82,West,262,7.0,13.0,84,0.00,,,1.56,,2013-03-18 22:13:00,
2013-03-18 17:23:00,42.0,38.0,29.83,NW,312,4.0,9.0,84,0.00,,,1.54,,2013-03-18 22:23:00,
2013-03-18 17:33:00,42.0,37.0,29.83,WNW,298,8.0,14.0,83,0.00,,,1.54,,2013-03-18 22:33:00,
2013-03-18 17:42:00,42.0,37.0,29.83,WNW,298,8.0,14.0,83,0.00,,,1.54,,2013-03-18 22:42:00,
2013-03-18 17:53:00,42.0,38.0,29.84,WNW,288,2.0,8.0,84,0.00,,,1.54,,2013-03-18 22:53:00,
2013-03-18 18:02:00,42.0,38.0,29.85,NW,311,0.0,7.0,84,0.00,,,1.54,,2013-03-18 23:02:00,
2013-03-18 18:12:00,42.0,38.0,29.85,NW,311,0.0,7.0,84,0.00,,,1.54,,2013-03-18 23:12:00,
2013-03-18 18:22:00,42.0,38.0,29.85,NW,311,0.0,7.0,84,0.00,,,1.54,,2013-03-18 23:22:00,
2013-03-18 18:32:00,43.0,38.0,29.86,WNW,296,5.0,12.0,81,0.00,,,1.49,,2013-03-18 23:32:00,
2013-03-18 18:42:00,43.0,38.0,29.86,WNW,296,5.0,12.0,81,0.00,,,1.49,,2013-03-18 23:42:00,
2013-03-18 18:53:00,43.0,37.0,29.88,WNW,294,7.0,13.0,79,0.00,,,1.49,,2013-03-18 23:53:00,
2013-03-18 19:02:00,43.0,37.0,29.88,WNW,296,2.0,9.0,79,0.00,,,1.49,,2013-03-19 00:02:00,
2013-03-18 19:12:00,43.0,37.0,29.88,WNW,296,2.0,9.0,79,0.00,,,1.49,,2013-03-19 00:12:00,
2013-03-18 19:22:00,42.0,36.0,29.88,WNW,282,0.0,5.0,80,0.00,,,1.42,,2013-03-19 00:22:00,
2013-03-18 19:32:00,41.0,36.0,29.88,WNW,286,0.0,0.0,81,0.00,,,1.42,,2013-03-19 00:32:00,
2013-03-18 19:42:00,41.0,36.0,29.88,WNW,286,0.0,0.0,81,0.00,,,1.42,,2013-03-19 00:42:00,
2013-03-18 19:52:00,40.0,35.0,29.89,WSW,255,0.0,0.0,83,0.00,,,1.42,,2013-03-19 00:52:00,
2013-03-18 20:02:00,39.0,35.0,29.89,WSW,244,0.0,0.0,86,0.00,,,1.42,,2013-03-19 01:02:00,
2013-03-18 20:12:00,39.0,35.0,29.89,WSW,244,0.0,0.0,86,0.00,,,1.42,,2013-03-19 01:12:00,
2013-03-18 20:22:00,37.0,34.0,29.89,WSW,242,0.0,0.0,88,0.00,,,1.34,,2013-03-19 01:22:00,
2013-03-18 20:32:00,37.0,34.0,29.90,WSW,242,0.0,0.0,89,0.00,,,1.34,,2013-03-19 01:32:00,
2013-03-18 20:42:00,37.0,34.0,29.90,WSW,242,0.0,0.0,89,0.00,,,1.34,,2013-03-19 01:42:00,
2013-03-18 20:52:00,37.0,34.0,29.90,WSW,242,0.0,0.0,90,0.00,,,1.34,,2013-03-19 01:52:00,
2013-03-18 21:02:00,37.0,34.0,29.90,WSW,242,0.0,0.0,90,0.00,,,1.34,,2013-03-19 02:02:00,
2013-03-18 21:12:00,37.0,34.0,29.90,WSW,242,0.0,0.0,90,0.00,,,1.34,,2013-03-19 02:12:00,
2013-03-18 21:22:00,37.0,34.0,29.91,WSW,242,0.0,0.0,90,0.00,,,1.24,,2013-03-19 02:22:00,
2013-03-18 21:32:00,36.0,33.0,29.91,WSW,242,0.0,0.0,90,0.00,,,1.24,,2013-03-19 02:32:00,
2013-03-18 21:42:00,36.0,33.0,29.91,WSW,242,0.0,0.0,90,0.00,,,1.24,,2013-03-19 02:42:00,
2013-03-18 21:52:00,36.0,34.0,29.91,WSW,238,0.0,0.0,91,0.00,,,1.24,,2013-03-19 02:52:00,
2013-03-18 22:02:00,36.0,34.0,29.91,WSW,238,0.0,0.0,91,0.00,,,1.24,,2013-03-19 03:02:00,
2013-03-18 22:12:00,36.0,34.0,29.91,WSW,238,0.0,0.0,91,0.00,,,1.24,,2013-03-19 03:12:00,
2013-03-18 22:22:00,36.0,33.0,29.93,SW,221,4.0,5.0,90,0.00,,,1.13,,2013-03-19 03:22:00,
2013-03-18 22:33:00,37.0,34.0,29.93,SW,236,1.0,6.0,90,0.00,,,1.13,,2013-03-19 03:33:00,
2013-03-18 22:43:00,37.0,34.0,29.93,SW,236,1.0,6.0,90,0.00,,,1.13,,2013-03-19 03:43:00,
2013-03-18 22:54:00,38.0,35.0,29.93,West,259,0.0,4.0,89,0.00,,,1.13,,2013-03-19 03:54:00,
2013-03-18 23:03:00,39.0,34.0,29.94,NW,305,2.0,8.0,83,0.00,,,1.13,,2013-03-19 04:03:00,
2013-03-18 23:13:00,39.0,34.0,29.94,NW,305,2.0,8.0,83,0.00,,,1.13,,2013-03-19 04:13:00,
2013-03-18 23:23:00,40.0,34.0,29.96,WNW,298,7.0,11.0,80,0.00,,,1.02,,2013-03-19 04:23:00,
2013-03-18 23:33:00,40.0,34.0,29.97,WNW,294,9.0,16.0,78,0.00,,,1.02,,2013-03-19 04:33:00,
2013-03-18 23:43:00,40.0,34.0,29.97,WNW,294,9.0,16.0,78,0.00,,,1.02,,2013-03-19 04:43:00,
2013-03-18 23:52:00,39.0,31.0,29.97,NW,310,7.0,15.0,73,0.00,,,1.02,,2013-03-19 04:52:00,